createdAt,value
2019-02-12T00:00:44.898Z,1015.34
2019-02-12T00:01:44.905Z,1015.39
2019-02-12T00:02:44.920Z,1015.42
2019-02-12T00:03:44.930Z,1015.41
2019-02-12T00:04:44.942Z,1015.40
2019-02-12T00:05:44.956Z,1015.37
2019-02-12T00:06:44.965Z,1015.36
2019-02-12T00:07:44.974Z,1015.39
2019-02-12T00:08:44.984Z,1015.45
2019-02-12T00:09:44.996Z,1015.45
2019-02-12T00:10:45.006Z,1015.52
2019-02-12T00:11:45.025Z,1015.43
2019-02-12T00:12:45.036Z,1015.45
2019-02-12T00:13:45.042Z,1015.41
2019-02-12T00:14:45.055Z,1015.50
2019-02-12T00:15:45.062Z,1015.49
2019-02-12T00:16:45.076Z,1015.44
2019-02-12T00:17:45.086Z,1015.40
2019-02-12T00:18:45.096Z,1015.43
2019-02-12T00:19:45.111Z,1015.41
2019-02-12T00:20:45.127Z,1015.45
2019-02-12T00:21:45.134Z,1015.46
2019-02-12T00:22:45.146Z,1015.40
2019-02-12T00:23:45.159Z,1015.39
2019-02-12T00:24:45.171Z,1015.35
2019-02-12T00:25:45.180Z,1015.40
2019-02-12T00:26:45.192Z,1015.37
2019-02-12T00:27:45.202Z,1015.28
2019-02-12T00:28:45.215Z,1015.29
2019-02-12T00:29:45.224Z,1015.28
2019-02-12T00:30:45.241Z,1015.38
2019-02-12T00:31:45.251Z,1015.31
2019-02-12T00:32:45.261Z,1015.37
2019-02-12T00:33:45.270Z,1015.34
2019-02-12T00:34:45.282Z,1015.34
2019-02-12T00:35:45.295Z,1015.34
2019-02-12T00:36:45.306Z,1015.32
2019-02-12T00:37:45.317Z,1015.38
2019-02-12T00:38:45.328Z,1015.34
2019-02-12T00:39:45.339Z,1015.39
2019-02-12T00:40:45.351Z,1015.42
2019-02-12T00:41:45.361Z,1015.41
2019-02-12T00:42:45.373Z,1015.37
2019-02-12T00:43:45.384Z,1015.40
2019-02-12T00:44:45.397Z,1015.46
2019-02-12T00:45:45.407Z,1015.38
2019-02-12T00:46:45.421Z,1015.47
2019-02-12T00:47:45.433Z,1015.47
2019-02-12T00:48:45.443Z,1015.50
2019-02-12T00:49:45.452Z,1015.53
2019-02-12T00:50:45.496Z,1015.49
2019-02-12T00:51:45.557Z,1015.44
2019-02-12T00:52:45.550Z,1015.49
2019-02-12T00:53:45.556Z,1015.53
2019-02-12T00:54:45.573Z,1015.49
2019-02-12T00:55:45.562Z,1015.55
2019-02-12T00:56:45.566Z,1015.49
2019-02-12T00:57:45.630Z,1015.48
2019-02-12T00:58:45.616Z,1015.42
2019-02-12T00:59:45.619Z,1015.41
2019-02-12T01:00:45.612Z,1015.37
2019-02-12T01:01:45.630Z,1015.37
2019-02-12T01:02:45.619Z,1015.34
2019-02-12T01:03:45.631Z,1015.37
2019-02-12T01:04:45.628Z,1015.41
2019-02-12T01:05:45.635Z,1015.37
2019-02-12T01:06:45.650Z,1015.41
2019-02-12T01:07:45.659Z,1015.39
2019-02-12T01:08:45.671Z,1015.38
2019-02-12T01:09:45.681Z,1015.31
2019-02-12T01:10:45.692Z,1015.34
2019-02-12T01:11:45.706Z,1015.42
2019-02-12T01:12:45.719Z,1015.25
2019-02-12T01:13:45.730Z,1015.45
2019-02-12T01:14:45.737Z,1015.43
2019-02-12T01:15:45.748Z,1015.52
2019-02-12T01:16:45.764Z,1015.44
2019-02-12T01:17:45.774Z,1015.49
2019-02-12T01:18:45.781Z,1015.52
2019-02-12T01:19:45.793Z,1015.60
2019-02-12T01:20:45.806Z,1015.65
2019-02-12T01:21:45.815Z,1015.54
2019-02-12T01:22:45.825Z,1015.62
2019-02-12T01:23:45.838Z,1015.63
2019-02-12T01:24:45.849Z,1015.60
2019-02-12T01:25:45.859Z,1015.70
2019-02-12T01:26:45.879Z,1015.67
2019-02-12T01:27:45.882Z,1015.75
2019-02-12T01:28:45.891Z,1015.70
2019-02-12T01:29:45.903Z,1015.72
2019-02-12T01:30:45.916Z,1015.75
2019-02-12T01:31:45.932Z,1015.64
2019-02-12T01:32:45.971Z,1015.70
2019-02-12T01:33:45.947Z,1015.76
2019-02-12T01:34:45.965Z,1015.74
2019-02-12T01:35:45.973Z,1015.79
2019-02-12T01:36:45.980Z,1015.78
2019-02-12T01:37:45.992Z,1015.84
2019-02-12T01:38:46.005Z,1015.80
2019-02-12T01:39:46.018Z,1015.92
2019-02-12T01:40:46.025Z,1016.02
2019-02-12T01:41:46.034Z,1016.00
2019-02-12T01:42:46.046Z,1015.94
2019-02-12T01:43:46.057Z,1015.94
2019-02-12T01:44:46.072Z,1015.89
2019-02-12T01:45:46.079Z,1015.98
2019-02-12T01:46:46.091Z,1015.86
2019-02-12T01:47:46.102Z,1015.95
2019-02-12T01:48:46.113Z,1015.99
2019-02-12T01:49:46.129Z,1016.07
2019-02-12T01:50:46.135Z,1016.03
2019-02-12T01:51:46.149Z,1015.96
2019-02-12T01:52:46.160Z,1016.04
2019-02-12T01:53:46.168Z,1015.97
2019-02-12T01:54:46.182Z,1015.97
2019-02-12T01:55:46.195Z,1015.98
2019-02-12T01:56:46.203Z,1015.99
2019-02-12T01:57:46.214Z,1016.04
2019-02-12T01:58:46.227Z,1015.98
2019-02-12T01:59:46.235Z,1015.96
2019-02-12T02:00:46.246Z,1016.08
2019-02-12T02:01:46.257Z,1016.06
2019-02-12T02:02:46.270Z,1016.10
2019-02-12T02:03:46.281Z,1016.07
2019-02-12T02:04:46.296Z,1016.13
2019-02-12T02:05:46.303Z,1016.04
2019-02-12T02:06:46.314Z,1016.09
2019-02-12T02:07:46.328Z,1016.09
2019-02-12T02:08:46.339Z,1016.10
2019-02-12T02:09:46.348Z,1016.07
2019-02-12T02:10:46.367Z,1016.02
2019-02-12T02:11:46.370Z,1016.17
2019-02-12T02:12:46.381Z,1016.12
2019-02-12T02:13:46.391Z,1016.17
2019-02-12T02:14:46.403Z,1016.18
2019-02-12T02:15:46.415Z,1016.11
2019-02-12T02:16:46.427Z,1016.12
2019-02-12T02:17:46.442Z,1016.10
2019-02-12T02:18:46.449Z,1016.13
2019-02-12T02:19:46.461Z,1016.17
2019-02-12T02:20:46.474Z,1016.08
2019-02-12T02:21:46.487Z,1016.11
2019-02-12T02:22:46.495Z,1016.11
2019-02-12T02:23:46.507Z,1016.21
2019-02-12T02:24:46.515Z,1016.14
2019-02-12T02:25:46.527Z,1016.11
2019-02-12T02:26:46.540Z,1016.25
2019-02-12T02:27:46.550Z,1016.23
2019-02-12T02:28:46.565Z,1016.34
2019-02-12T02:29:46.575Z,1016.24
2019-02-12T02:30:46.587Z,1016.41
2019-02-12T02:31:46.598Z,1016.30
2019-02-12T02:32:46.608Z,1016.35
2019-02-12T02:33:46.620Z,1016.55
2019-02-12T02:34:46.630Z,1016.42
2019-02-12T02:35:46.642Z,1016.33
2019-02-12T02:36:46.653Z,1016.33
2019-02-12T02:37:46.664Z,1016.34
2019-02-12T02:38:46.676Z,1016.38
2019-02-12T02:39:46.691Z,1016.31
2019-02-12T02:40:46.699Z,1016.30
2019-02-12T02:41:46.712Z,1016.34
2019-02-12T02:42:46.721Z,1016.30
2019-02-12T02:43:46.733Z,1016.34
2019-02-12T02:44:46.743Z,1016.26
2019-02-12T02:45:46.755Z,1016.34
2019-02-12T02:46:46.765Z,1016.34
2019-02-12T02:47:46.777Z,1016.39
2019-02-12T02:48:46.790Z,1016.48
2019-02-12T02:49:46.800Z,1016.47
2019-02-12T02:50:46.812Z,1016.38
2019-02-12T02:51:53.662Z,1016.40
2019-02-12T02:52:46.835Z,1016.43
2019-02-12T02:53:46.846Z,1016.45
2019-02-12T02:54:46.858Z,1016.35
2019-02-12T02:55:46.907Z,1016.49
2019-02-12T02:56:46.884Z,1016.43
2019-02-12T02:57:46.891Z,1016.54
2019-02-12T02:58:46.903Z,1016.47
2019-02-12T02:59:46.914Z,1016.49
2019-02-12T03:00:46.924Z,1016.60
2019-02-12T03:01:46.938Z,1016.63
2019-02-12T03:02:46.946Z,1016.59
2019-02-12T03:03:46.958Z,1016.55
2019-02-12T03:04:46.970Z,1016.55
2019-02-12T03:05:46.983Z,1016.53
2019-02-12T03:06:46.993Z,1016.53
2019-02-12T03:07:47.005Z,1016.58
2019-02-12T03:08:47.019Z,1016.55
2019-02-12T03:09:47.033Z,1016.48
2019-02-12T03:10:47.041Z,1016.51
2019-02-12T03:11:47.048Z,1016.49
2019-02-12T03:12:47.059Z,1016.50
2019-02-12T03:13:47.071Z,1016.55
2019-02-12T03:14:47.084Z,1016.60
2019-02-12T03:15:47.101Z,1016.68
2019-02-12T03:16:47.106Z,1016.64
2019-02-12T03:17:47.116Z,1016.56
2019-02-12T03:18:47.132Z,1016.62
2019-02-12T03:19:47.140Z,1016.56
2019-02-12T03:20:47.151Z,1016.58
2019-02-12T03:21:47.185Z,1016.61
2019-02-12T03:22:47.172Z,1016.55
2019-02-12T03:23:47.186Z,1016.63
2019-02-12T03:24:47.197Z,1016.68
2019-02-12T03:25:47.206Z,1016.76
2019-02-12T03:26:47.217Z,1016.75
2019-02-12T03:27:47.228Z,1016.70
2019-02-12T03:28:47.239Z,1016.72
2019-02-12T03:29:47.253Z,1016.75
2019-02-12T03:30:47.265Z,1016.86
2019-02-12T03:31:47.298Z,1016.86
2019-02-12T03:32:47.375Z,1016.94
2019-02-12T03:33:47.356Z,1016.97
2019-02-12T03:34:47.353Z,1016.96
2019-02-12T03:35:47.360Z,1016.99
2019-02-12T03:36:47.416Z,1016.92
2019-02-12T03:37:47.420Z,1016.92
2019-02-12T03:38:47.421Z,1016.98
2019-02-12T03:39:47.411Z,1017.03
2019-02-12T03:40:47.404Z,1016.98
2019-02-12T03:41:47.425Z,1017.04
2019-02-12T03:42:47.416Z,1017.03
2019-02-12T03:43:47.416Z,1016.96
2019-02-12T03:44:47.418Z,1017.02
2019-02-12T03:45:47.426Z,1017.12
2019-02-12T03:46:47.441Z,1017.09
2019-02-12T03:47:47.447Z,1017.10
2019-02-12T03:48:47.459Z,1017.10
2019-02-12T03:49:47.472Z,1017.11
2019-02-12T03:50:47.479Z,1017.10
2019-02-12T03:51:47.492Z,1017.04
2019-02-12T03:52:47.503Z,1017.10
2019-02-12T03:53:47.515Z,1017.08
2019-02-12T03:54:47.526Z,1017.12
2019-02-12T03:55:47.536Z,1017.03
2019-02-12T03:56:47.548Z,1017.08
2019-02-12T03:57:47.556Z,1017.07
2019-02-12T03:58:47.571Z,1017.16
2019-02-12T03:59:47.579Z,1017.09
2019-02-12T04:00:47.589Z,1017.16
2019-02-12T04:01:47.601Z,1017.10
2019-02-12T04:02:47.612Z,1017.18
2019-02-12T04:03:47.624Z,1017.12
2019-02-12T04:04:47.632Z,1017.19
2019-02-12T04:05:47.646Z,1017.06
2019-02-12T04:06:47.666Z,1017.22
2019-02-12T04:07:47.665Z,1017.15
2019-02-12T04:08:47.675Z,1017.17
2019-02-12T04:09:47.688Z,1017.21
2019-02-12T04:10:47.697Z,1017.23
2019-02-12T04:11:47.713Z,1017.21
2019-02-12T04:12:47.724Z,1017.20
2019-02-12T04:13:47.729Z,1017.26
2019-02-12T04:14:47.742Z,1017.18
2019-02-12T04:15:47.751Z,1017.19
2019-02-12T04:16:47.763Z,1017.14
2019-02-12T04:17:47.774Z,1017.19
2019-02-12T04:18:47.785Z,1017.15
2019-02-12T04:19:47.796Z,1017.20
2019-02-12T04:20:47.807Z,1017.14
2019-02-12T04:21:47.818Z,1017.13
2019-02-12T04:22:47.828Z,1017.09
2019-02-12T04:23:47.841Z,1017.10
2019-02-12T04:24:47.851Z,1017.14
2019-02-12T04:25:47.861Z,1017.08
2019-02-12T04:26:47.873Z,1017.08
2019-02-12T04:27:47.883Z,1017.08
2019-02-12T04:28:47.896Z,1017.06
2019-02-12T04:29:47.907Z,1017.02
2019-02-12T04:30:47.917Z,1017.10
2019-02-12T04:31:47.928Z,1016.98
2019-02-12T04:32:47.940Z,1016.96
2019-02-12T04:33:47.956Z,1016.94
2019-02-12T04:34:47.967Z,1016.97
2019-02-12T04:35:48.000Z,1016.92
2019-02-12T04:36:47.986Z,1016.98
2019-02-12T04:37:47.993Z,1017.03
2019-02-12T04:38:48.007Z,1017.06
2019-02-12T04:39:48.023Z,1017.05
2019-02-12T04:40:48.031Z,1017.05
2019-02-12T04:41:48.040Z,1017.12
2019-02-12T04:42:48.053Z,1017.09
2019-02-12T04:43:48.063Z,1017.27
2019-02-12T04:44:48.074Z,1017.18
2019-02-12T04:45:48.084Z,1017.24
2019-02-12T04:46:48.096Z,1017.31
2019-02-12T04:47:48.107Z,1017.38
2019-02-12T04:48:48.118Z,1017.38
2019-02-12T04:49:48.129Z,1017.33
2019-02-12T04:50:48.148Z,1017.31
2019-02-12T04:51:48.152Z,1017.34
2019-02-12T04:52:48.164Z,1017.34
2019-02-12T04:53:48.174Z,1017.30
2019-02-12T04:54:48.205Z,1017.31
2019-02-12T04:55:48.200Z,1017.27
2019-02-12T04:56:48.210Z,1017.27
2019-02-12T04:57:48.220Z,1017.25
2019-02-12T04:58:48.235Z,1017.28
2019-02-12T04:59:48.245Z,1017.22
2019-02-12T05:00:48.256Z,1017.24
2019-02-12T05:01:48.271Z,1017.25
2019-02-12T05:02:48.277Z,1017.23
2019-02-12T05:03:48.287Z,1017.30
2019-02-12T05:04:48.299Z,1017.32
2019-02-12T05:05:48.309Z,1017.34
2019-02-12T05:06:48.321Z,1017.36
2019-02-12T05:07:48.332Z,1017.35
2019-02-12T05:08:48.345Z,1017.28
2019-02-12T05:09:48.358Z,1017.29
2019-02-12T05:10:48.367Z,1017.26
2019-02-12T05:11:48.379Z,1017.23
2019-02-12T05:12:48.390Z,1017.28
2019-02-12T05:13:48.400Z,1017.29
2019-02-12T05:14:48.413Z,1017.30
2019-02-12T05:15:48.426Z,1017.36
2019-02-12T05:16:48.434Z,1017.39
2019-02-12T05:17:48.444Z,1017.44
2019-02-12T05:18:48.456Z,1017.40
2019-02-12T05:19:48.467Z,1017.43
2019-02-12T05:20:48.481Z,1017.47
2019-02-12T05:21:48.494Z,1017.50
2019-02-12T05:22:48.521Z,1017.48
2019-02-12T05:23:48.513Z,1017.55
2019-02-12T05:24:48.526Z,1017.56
2019-02-12T05:25:48.534Z,1017.47
2019-02-12T05:26:48.546Z,1017.47
2019-02-12T05:27:48.559Z,1017.44
2019-02-12T05:28:48.583Z,1017.52
2019-02-12T05:29:48.581Z,1017.45
2019-02-12T05:30:48.591Z,1017.42
2019-02-12T05:31:48.604Z,1017.41
2019-02-12T05:32:48.614Z,1017.37
2019-02-12T05:33:48.642Z,1017.36
2019-02-12T05:34:48.639Z,1017.43
2019-02-12T05:35:48.646Z,1017.45
2019-02-12T05:36:48.663Z,1017.44
2019-02-12T05:37:48.672Z,1017.42
2019-02-12T05:38:48.684Z,1017.47
2019-02-12T05:39:48.694Z,1017.40
2019-02-12T05:40:48.707Z,1017.43
2019-02-12T05:41:48.716Z,1017.49
2019-02-12T05:42:48.729Z,1017.48
2019-02-12T05:43:48.741Z,1017.50
2019-02-12T05:44:48.749Z,1017.48
2019-02-12T05:45:48.764Z,1017.50
2019-02-12T05:46:48.774Z,1017.46
2019-02-12T05:47:48.785Z,1017.47
2019-02-12T05:48:48.796Z,1017.47
2019-02-12T05:49:48.807Z,1017.48
2019-02-12T05:50:48.818Z,1017.48
2019-02-12T05:51:48.830Z,1017.42
2019-02-12T05:52:54.434Z,1017.53
2019-02-12T05:53:48.865Z,1017.53
2019-02-12T05:54:48.864Z,1017.57
2019-02-12T05:55:48.883Z,1017.55
2019-02-12T05:56:48.890Z,1017.58
2019-02-12T05:57:48.899Z,1017.51
2019-02-12T05:58:48.909Z,1017.56
2019-02-12T05:59:48.922Z,1017.58
2019-02-12T06:00:48.934Z,1017.61
2019-02-12T06:01:48.946Z,1017.67
2019-02-12T06:02:48.957Z,1017.70
2019-02-12T06:03:48.966Z,1017.72
2019-02-12T06:04:48.979Z,1017.79
2019-02-12T06:05:48.990Z,1017.74
2019-02-12T06:06:49.005Z,1017.82
2019-02-12T06:07:49.014Z,1017.86
2019-02-12T06:08:49.029Z,1017.87
2019-02-12T06:09:49.034Z,1017.95
2019-02-12T06:10:49.047Z,1017.96
2019-02-12T06:11:49.071Z,1018.07
2019-02-12T06:12:49.097Z,1018.09
2019-02-12T06:13:49.156Z,1018.15
2019-02-12T06:14:49.158Z,1018.15
2019-02-12T06:15:49.149Z,1018.18
2019-02-12T06:16:49.153Z,1018.24
2019-02-12T06:17:49.146Z,1018.31
2019-02-12T06:18:49.210Z,1018.25
2019-02-12T06:19:49.214Z,1018.29
2019-02-12T06:20:49.216Z,1018.30
2019-02-12T06:21:49.210Z,1018.37
2019-02-12T06:22:49.200Z,1018.39
2019-02-12T06:23:49.216Z,1018.36
2019-02-12T06:24:49.205Z,1018.45
2019-02-12T06:25:49.211Z,1018.41
2019-02-12T06:26:49.221Z,1018.48
2019-02-12T06:27:49.232Z,1018.43
2019-02-12T06:28:49.243Z,1018.46
2019-02-12T06:29:49.254Z,1018.49
2019-02-12T06:30:49.265Z,1018.50
2019-02-12T06:31:49.275Z,1018.54
2019-02-12T06:32:49.287Z,1018.58
2019-02-12T06:33:49.294Z,1018.59
2019-02-12T06:34:49.316Z,1018.60
2019-02-12T06:35:49.319Z,1018.60
2019-02-12T06:36:49.330Z,1018.61
2019-02-12T06:37:49.340Z,1018.61
2019-02-12T06:38:49.354Z,1018.69
2019-02-12T06:39:49.363Z,1018.72
2019-02-12T06:40:49.375Z,1018.72
2019-02-12T06:41:49.385Z,1018.72
2019-02-12T06:42:49.395Z,1018.76
2019-02-12T06:43:49.406Z,1018.78
2019-02-12T06:44:49.418Z,1018.83
2019-02-12T06:45:49.428Z,1018.77
2019-02-12T06:46:49.439Z,1018.82
2019-02-12T06:47:49.451Z,1018.83
2019-02-12T06:48:49.463Z,1018.87
2019-02-12T06:49:49.476Z,1018.93
2019-02-12T06:50:49.483Z,1018.90
2019-02-12T06:51:49.494Z,1018.93
2019-02-12T06:52:49.507Z,1018.94
2019-02-12T06:53:49.516Z,1018.90
2019-02-12T06:54:49.526Z,1018.93
2019-02-12T06:55:49.540Z,1018.87
2019-02-12T06:56:49.549Z,1018.91
2019-02-12T06:57:49.561Z,1018.86
2019-02-12T06:58:49.573Z,1018.89
2019-02-12T06:59:49.584Z,1018.89
2019-02-12T07:00:49.592Z,1018.93
2019-02-12T07:01:49.604Z,1018.96
2019-02-12T07:02:49.622Z,1018.96
2019-02-12T07:03:49.628Z,1018.99
2019-02-12T07:04:49.642Z,1018.99
2019-02-12T07:05:49.648Z,1019.03
2019-02-12T07:06:49.660Z,1018.98
2019-02-12T07:07:49.674Z,1019.07
2019-02-12T07:08:49.683Z,1019.00
2019-02-12T07:09:49.694Z,1019.06
2019-02-12T07:10:49.707Z,1019.09
2019-02-12T07:11:49.717Z,1019.17
2019-02-12T07:12:49.730Z,1019.17
2019-02-12T07:13:49.741Z,1019.26
2019-02-12T07:14:49.759Z,1019.31
2019-02-12T07:15:49.765Z,1019.28
2019-02-12T07:16:49.775Z,1019.35
2019-02-12T07:17:49.786Z,1019.37
2019-02-12T07:18:49.800Z,1019.43
2019-02-12T07:19:49.809Z,1019.42
2019-02-12T07:20:49.821Z,1019.39
2019-02-12T07:21:49.833Z,1019.48
2019-02-12T07:22:49.846Z,1019.46
2019-02-12T07:23:49.869Z,1019.49
2019-02-12T07:24:49.866Z,1019.52
2019-02-12T07:25:49.875Z,1019.55
2019-02-12T07:26:49.893Z,1019.52
2019-02-12T07:27:49.902Z,1019.56
2019-02-12T07:28:49.914Z,1019.56
2019-02-12T07:29:49.924Z,1019.57
2019-02-12T07:30:49.935Z,1019.56
2019-02-12T07:31:49.948Z,1019.61
2019-02-12T07:32:49.959Z,1019.61
2019-02-12T07:33:49.972Z,1019.59
2019-02-12T07:34:49.985Z,1019.63
2019-02-12T07:35:50.008Z,1019.61
2019-02-12T07:36:50.004Z,1019.62
2019-02-12T07:37:50.020Z,1019.63
2019-02-12T07:38:50.034Z,1019.60
2019-02-12T07:39:50.038Z,1019.69
2019-02-12T07:40:50.048Z,1019.67
2019-02-12T07:41:50.061Z,1019.69
2019-02-12T07:42:50.097Z,1019.77
2019-02-12T07:43:50.085Z,1019.78
2019-02-12T07:44:50.098Z,1019.83
2019-02-12T07:45:50.114Z,1019.83
2019-02-12T07:46:50.123Z,1019.87
2019-02-12T07:47:50.133Z,1019.82
2019-02-12T07:48:50.143Z,1019.88
2019-02-12T07:49:50.155Z,1019.86
2019-02-12T07:50:50.165Z,1019.80
2019-02-12T07:51:50.177Z,1019.89
2019-02-12T07:52:50.189Z,1019.87
2019-02-12T07:53:50.199Z,1019.83
2019-02-12T07:54:50.211Z,1019.83
2019-02-12T07:55:51.493Z,1019.85
2019-02-12T07:56:50.234Z,1019.89
2019-02-12T07:57:50.548Z,1019.90
2019-02-12T07:58:50.257Z,1019.94
2019-02-12T07:59:50.272Z,1019.96
2019-02-12T08:00:50.281Z,1019.99
2019-02-12T08:01:50.290Z,1020.01
2019-02-12T08:02:50.307Z,1019.99
2019-02-12T08:03:50.316Z,1019.99
2019-02-12T08:04:50.326Z,1019.96
2019-02-12T08:05:50.337Z,1019.92
2019-02-12T08:06:50.349Z,1019.97
2019-02-12T08:07:50.360Z,1019.99
2019-02-12T08:08:50.370Z,1019.97
2019-02-12T08:09:50.382Z,1020.01
2019-02-12T08:10:50.396Z,1019.93
2019-02-12T08:11:50.406Z,1020.03
2019-02-12T08:12:50.420Z,1020.00
2019-02-12T08:13:50.427Z,1020.01
2019-02-12T08:14:50.492Z,1020.05
2019-02-12T08:15:50.450Z,1020.00
2019-02-12T08:16:50.463Z,1020.06
2019-02-12T08:17:50.474Z,1020.02
2019-02-12T08:18:50.484Z,1020.02
2019-02-12T08:19:50.496Z,1020.04
2019-02-12T08:20:50.505Z,1020.03
2019-02-12T08:21:50.518Z,1020.11
2019-02-12T08:22:50.530Z,1020.14
2019-02-12T08:23:50.542Z,1020.13
2019-02-12T08:24:50.554Z,1020.20
2019-02-12T08:25:50.584Z,1020.26
2019-02-12T08:26:50.576Z,1020.26
2019-02-12T08:27:50.589Z,1020.30
2019-02-12T08:28:52.111Z,1020.35
2019-02-12T08:29:50.610Z,1020.35
2019-02-12T08:30:50.622Z,1020.29
2019-02-12T08:31:50.634Z,1020.31
2019-02-12T08:32:50.646Z,1020.37
2019-02-12T08:33:50.654Z,1020.34
2019-02-12T08:34:50.668Z,1020.37
2019-02-12T08:35:57.053Z,1020.33
2019-02-12T08:36:50.693Z,1020.33
2019-02-12T08:37:50.703Z,1020.41
2019-02-12T08:38:50.716Z,1020.37
2019-02-12T08:39:50.734Z,1020.33
2019-02-12T08:40:50.742Z,1020.35
2019-02-12T08:41:50.752Z,1020.40
2019-02-12T08:42:50.768Z,1020.40
2019-02-12T08:43:50.775Z,1020.42
2019-02-12T08:44:50.792Z,1020.38
2019-02-12T08:45:50.804Z,1020.49
2019-02-12T08:46:50.818Z,1020.48
2019-02-12T08:47:50.826Z,1020.45
2019-02-12T08:48:50.839Z,1020.46
2019-02-12T08:49:50.851Z,1020.53
2019-02-12T08:50:50.951Z,1020.55
2019-02-12T08:51:50.952Z,1020.54
2019-02-12T08:52:50.934Z,1020.57
2019-02-12T08:53:50.963Z,1020.62
2019-02-12T08:54:50.951Z,1020.60
2019-02-12T08:55:51.010Z,1020.63
2019-02-12T08:56:51.002Z,1020.63
2019-02-12T08:57:50.995Z,1020.59
2019-02-12T08:58:51.004Z,1020.62
2019-02-12T08:59:50.998Z,1020.74
2019-02-12T09:00:51.000Z,1020.75
2019-02-12T09:01:51.002Z,1020.71
2019-02-12T09:02:51.032Z,1020.78
2019-02-12T09:03:51.030Z,1020.82
2019-02-12T09:04:51.049Z,1020.78
2019-02-12T09:05:51.054Z,1020.84
2019-02-12T09:06:51.067Z,1020.93
2019-02-12T09:07:51.078Z,1020.84
2019-02-12T09:08:51.093Z,1020.93
2019-02-12T09:09:51.105Z,1020.85
2019-02-12T09:10:51.120Z,1020.90
2019-02-12T09:11:51.135Z,1020.93
2019-02-12T09:12:51.146Z,1020.88
2019-02-12T09:13:51.159Z,1020.90
2019-02-12T09:14:51.177Z,1020.91
2019-02-12T09:15:51.187Z,1020.92
2019-02-12T09:16:51.202Z,1020.95
2019-02-12T09:17:51.214Z,1020.90
2019-02-12T09:18:51.224Z,1020.96
2019-02-12T09:19:51.235Z,1020.91
2019-02-12T09:20:51.254Z,1020.95
2019-02-12T09:21:51.263Z,1020.99
2019-02-12T09:22:51.280Z,1020.88
2019-02-12T09:23:59.397Z,1020.97
2019-02-12T09:24:51.302Z,1020.90
2019-02-12T09:25:51.315Z,1021.04
2019-02-12T09:26:51.327Z,1020.93
2019-02-12T09:27:51.340Z,1021.09
2019-02-12T09:28:51.354Z,1021.09
2019-02-12T09:29:51.368Z,1021.06
2019-02-12T09:30:51.380Z,1021.18
2019-02-12T09:31:51.393Z,1021.19
2019-02-12T09:32:51.407Z,1021.30
2019-02-12T09:33:51.420Z,1021.25
2019-02-12T09:34:51.435Z,1021.24
2019-02-12T09:35:51.447Z,1021.14
2019-02-12T09:36:51.461Z,1021.18
2019-02-12T09:37:51.473Z,1021.27
2019-02-12T09:38:51.488Z,1021.31
2019-02-12T09:39:51.502Z,1021.31
2019-02-12T09:40:51.514Z,1021.33
2019-02-12T09:41:51.527Z,1021.42
2019-02-12T09:42:51.541Z,1021.35
2019-02-12T09:43:51.556Z,1021.39
2019-02-12T09:44:51.569Z,1021.38
2019-02-12T09:45:51.580Z,1021.46
2019-02-12T09:46:51.594Z,1021.54
2019-02-12T09:47:51.611Z,1021.59
2019-02-12T09:48:51.624Z,1021.54
2019-02-12T09:49:51.635Z,1021.53
2019-02-12T09:50:51.647Z,1021.46
2019-02-12T09:51:51.662Z,1021.50
2019-02-12T09:52:51.688Z,1021.54
2019-02-12T09:53:51.698Z,1021.53
2019-02-12T09:54:51.703Z,1021.58
2019-02-12T09:55:51.715Z,1021.64
2019-02-12T09:56:51.729Z,1021.59
2019-02-12T09:57:51.745Z,1021.61
2019-02-12T09:58:51.759Z,1021.58
2019-02-12T09:59:51.772Z,1021.58
2019-02-12T10:00:51.820Z,1021.51
2019-02-12T10:01:51.796Z,1021.60
2019-02-12T10:02:51.814Z,1021.70
2019-02-12T10:03:51.825Z,1021.67
2019-02-12T10:04:51.839Z,1021.78
2019-02-12T10:05:51.848Z,1021.77
2019-02-12T10:06:51.863Z,1021.75
2019-02-12T10:07:51.988Z,1021.71
2019-02-12T10:08:51.891Z,1021.91
2019-02-12T10:09:51.911Z,1021.76
2019-02-12T10:10:51.919Z,1021.79
2019-02-12T10:11:51.934Z,1021.66
2019-02-12T10:12:51.949Z,1021.69
2019-02-12T10:13:51.961Z,1021.85
2019-02-12T10:14:51.975Z,1021.78
2019-02-12T10:15:51.984Z,1021.80
2019-02-12T10:16:52.005Z,1021.86
2019-02-12T10:17:52.014Z,1021.94
2019-02-12T10:18:52.025Z,1022.06
2019-02-12T10:19:52.041Z,1021.92
2019-02-12T10:20:52.056Z,1021.93
2019-02-12T10:21:52.069Z,1021.90
2019-02-12T10:22:52.084Z,1021.85
2019-02-12T10:23:52.098Z,1021.95
2019-02-12T10:24:52.112Z,1022.01
2019-02-12T10:25:52.125Z,1021.93
2019-02-12T10:26:52.141Z,1021.91
2019-02-12T10:27:52.154Z,1021.94
2019-02-12T10:28:52.167Z,1021.93
2019-02-12T10:29:52.180Z,1022.00
2019-02-12T10:30:52.195Z,1021.98
2019-02-12T10:31:52.211Z,1022.06
2019-02-12T10:32:52.232Z,1022.08
2019-02-12T10:33:52.241Z,1022.01
2019-02-12T10:34:52.254Z,1022.02
2019-02-12T10:35:52.267Z,1021.95
2019-02-12T10:36:52.281Z,1021.96
2019-02-12T10:37:52.295Z,1021.93
2019-02-12T10:38:52.312Z,1021.93
2019-02-12T10:39:52.327Z,1021.92
2019-02-12T10:40:52.342Z,1021.96
2019-02-12T10:41:52.355Z,1022.04
2019-02-12T10:42:52.370Z,1021.95
2019-02-12T10:43:52.390Z,1021.89
2019-02-12T10:44:52.402Z,1022.02
2019-02-12T10:45:52.414Z,1022.15
2019-02-12T10:46:52.430Z,1022.01
2019-02-12T10:47:52.447Z,1021.95
2019-02-12T10:48:52.827Z,1022.09
2019-02-12T10:49:52.479Z,1022.04
2019-02-12T10:50:52.491Z,1022.00
2019-02-12T10:51:52.507Z,1021.98
2019-02-12T10:52:52.521Z,1021.96
2019-02-12T10:53:52.536Z,1021.93
2019-02-12T10:54:52.557Z,1022.00
2019-02-12T10:55:52.569Z,1022.03
2019-02-12T10:56:52.581Z,1022.00
2019-02-12T10:57:52.597Z,1022.08
2019-02-12T10:58:52.609Z,1022.04
2019-02-12T10:59:52.622Z,1022.04
2019-02-12T11:00:52.638Z,1021.98
2019-02-12T11:01:52.656Z,1021.96
2019-02-12T11:02:52.666Z,1021.89
2019-02-12T11:03:52.680Z,1021.93
2019-02-12T11:04:52.769Z,1021.88
2019-02-12T11:05:52.769Z,1021.85
2019-02-12T11:06:52.788Z,1021.83
2019-02-12T11:07:52.769Z,1021.87
2019-02-12T11:08:52.828Z,1021.92
2019-02-12T11:09:52.837Z,1021.88
2019-02-12T11:10:52.829Z,1021.90
2019-02-12T11:11:52.850Z,1021.89
2019-02-12T11:12:52.835Z,1021.91
2019-02-12T11:13:52.839Z,1021.91
2019-02-12T11:14:52.849Z,1021.95
2019-02-12T11:15:52.862Z,1021.93
2019-02-12T11:16:52.874Z,1021.99
2019-02-12T11:17:52.890Z,1021.93
2019-02-12T11:18:52.906Z,1021.92
2019-02-12T11:19:52.927Z,1021.98
2019-02-12T11:20:52.934Z,1021.96
2019-02-12T11:21:52.949Z,1021.99
2019-02-12T11:22:52.963Z,1022.07
2019-02-12T11:23:52.979Z,1022.10
2019-02-12T11:24:52.993Z,1022.11
2019-02-12T11:25:53.007Z,1022.06
2019-02-12T11:26:53.023Z,1022.10
2019-02-12T11:27:53.038Z,1022.06
2019-02-12T11:28:53.050Z,1022.13
2019-02-12T11:29:53.064Z,1022.17
2019-02-12T11:30:53.079Z,1022.13
2019-02-12T11:31:53.094Z,1022.04
2019-02-12T11:32:53.108Z,1022.07
2019-02-12T11:33:53.121Z,1022.01
2019-02-12T11:34:53.134Z,1021.99
2019-02-12T11:35:53.160Z,1022.08
2019-02-12T11:36:53.166Z,1022.02
2019-02-12T11:37:53.180Z,1022.05
2019-02-12T11:38:53.195Z,1022.11
2019-02-12T11:39:53.211Z,1022.22
2019-02-12T11:40:53.226Z,1022.08
2019-02-12T11:41:53.241Z,1022.05
2019-02-12T11:42:53.257Z,1022.11
2019-02-12T11:43:53.273Z,1022.08
2019-02-12T11:44:53.286Z,1022.04
2019-02-12T11:45:53.301Z,1022.09
2019-02-12T11:46:53.315Z,1022.02
2019-02-12T11:47:53.333Z,1022.07
2019-02-12T11:48:53.350Z,1022.02
2019-02-12T11:49:53.363Z,1022.00
2019-02-12T11:50:53.378Z,1021.97
2019-02-12T11:51:53.394Z,1022.01
2019-02-12T11:52:53.410Z,1022.02
2019-02-12T11:53:53.423Z,1022.02
2019-02-12T11:54:53.440Z,1022.01
2019-02-12T11:55:53.457Z,1022.08
2019-02-12T11:56:53.474Z,1022.17
2019-02-12T11:57:53.486Z,1022.09
2019-02-12T11:58:53.500Z,1022.10
2019-02-12T11:59:53.516Z,1022.15
2019-02-12T12:00:53.531Z,1022.15
2019-02-12T12:01:53.550Z,1022.14
2019-02-12T12:02:53.564Z,1022.25
2019-02-12T12:03:53.577Z,1022.18
2019-02-12T12:04:53.596Z,1022.16
2019-02-12T12:05:53.608Z,1022.17